sensor_id;sensor_type;location;lat;lon;timestamp;pressure;altitude;pressure_sealevel;temperature;humidity
65329;BME280;51941;52.210;5.158;2023-12-29T00:02:03;100586.53;;;9.19;79.99
65329;BME280;51941;52.210;5.158;2023-12-29T00:04:30;100573.50;;;9.21;80.03
65329;BME280;51941;52.210;5.158;2023-12-29T00:06:56;100574.63;;;9.20;80.54
65329;BME280;51941;52.210;5.158;2023-12-29T00:09:23;100583.50;;;9.24;79.88
65329;BME280;51941;52.210;5.158;2023-12-29T00:11:50;100571.50;;;9.15;80.69
65329;BME280;51941;52.210;5.158;2023-12-29T00:14:17;100573.81;;;9.16;80.16
65329;BME280;51941;52.210;5.158;2023-12-29T00:16:44;100571.53;;;9.18;80.34
65329;BME280;51941;52.210;5.158;2023-12-29T00:19:12;100560.09;;;9.25;80.09
65329;BME280;51941;52.210;5.158;2023-12-29T00:21:39;100568.59;;;9.27;80.27
65329;BME280;51941;52.210;5.158;2023-12-29T00:24:06;100557.41;;;9.25;80.26
65329;BME280;51941;52.210;5.158;2023-12-29T00:26:33;100558.50;;;9.20;80.60
65329;BME280;51941;52.210;5.158;2023-12-29T00:29:01;100565.06;;;9.23;80.43
65329;BME280;51941;52.210;5.158;2023-12-29T00:31:28;100547.00;;;9.20;80.71
65329;BME280;51941;52.210;5.158;2023-12-29T00:33:56;100542.75;;;9.19;80.94
65329;BME280;51941;52.210;5.158;2023-12-29T00:36:25;100528.91;;;9.17;80.80
65329;BME280;51941;52.210;5.158;2023-12-29T00:38:51;100538.59;;;9.25;80.52
65329;BME280;51941;52.210;5.158;2023-12-29T00:41:18;100510.94;;;9.24;80.37
65329;BME280;51941;52.210;5.158;2023-12-29T00:43:45;100510.59;;;9.26;80.42
65329;BME280;51941;52.210;5.158;2023-12-29T00:46:14;100508.16;;;9.14;80.13
65329;BME280;51941;52.210;5.158;2023-12-29T00:48:41;100504.09;;;9.27;80.10
65329;BME280;51941;52.210;5.158;2023-12-29T00:51:08;100522.06;;;9.23;79.88
65329;BME280;51941;52.210;5.158;2023-12-29T00:53:37;100527.13;;;9.28;79.89
65329;BME280;51941;52.210;5.158;2023-12-29T00:56:09;100531.38;;;9.29;79.72
65329;BME280;51941;52.210;5.158;2023-12-29T00:58:37;100528.72;;;9.33;79.83
65329;BME280;51941;52.210;5.158;2023-12-29T01:01:05;100521.47;;;9.37;79.47
65329;BME280;51941;52.210;5.158;2023-12-29T01:03:31;100509.59;;;9.38;79.10
65329;BME280;51941;52.210;5.158;2023-12-29T01:05:58;100517.34;;;9.46;79.31
65329;BME280;51941;52.210;5.158;2023-12-29T01:08:26;100515.41;;;9.43;79.15
65329;BME280;51941;52.210;5.158;2023-12-29T01:10:54;100514.25;;;9.44;78.84
65329;BME280;51941;52.210;5.158;2023-12-29T01:13:21;100517.28;;;9.39;78.44
65329;BME280;51941;52.210;5.158;2023-12-29T01:15:48;100508.47;;;9.42;78.40
65329;BME280;51941;52.210;5.158;2023-12-29T01:18:14;100513.84;;;9.42;78.01
65329;BME280;51941;52.210;5.158;2023-12-29T01:20:41;100508.50;;;9.46;78.37
65329;BME280;51941;52.210;5.158;2023-12-29T01:23:08;100515.69;;;9.35;78.34
65329;BME280;51941;52.210;5.158;2023-12-29T01:25:35;100520.78;;;9.43;78.40
65329;BME280;51941;52.210;5.158;2023-12-29T01:28:03;100512.75;;;9.47;78.14
65329;BME280;51941;52.210;5.158;2023-12-29T01:30:30;100503.41;;;9.34;78.55
65329;BME280;51941;52.210;5.158;2023-12-29T01:32:57;100505.34;;;9.37;78.18
65329;BME280;51941;52.210;5.158;2023-12-29T01:35:24;100512.69;;;9.40;78.47
65329;BME280;51941;52.210;5.158;2023-12-29T01:37:50;100513.69;;;9.28;78.38
65329;BME280;51941;52.210;5.158;2023-12-29T01:40:18;100504.97;;;9.38;78.29
65329;BME280;51941;52.210;5.158;2023-12-29T01:42:45;100504.56;;;9.36;78.23
65329;BME280;51941;52.210;5.158;2023-12-29T01:45:20;100514.59;;;9.39;78.32
65329;BME280;51941;52.210;5.158;2023-12-29T01:47:47;100511.94;;;9.43;78.06
65329;BME280;51941;52.210;5.158;2023-12-29T01:50:15;100512.75;;;9.47;78.12
65329;BME280;51941;52.210;5.158;2023-12-29T01:52:43;100512.78;;;9.50;77.97
65329;BME280;51941;52.210;5.158;2023-12-29T01:55:12;100495.84;;;9.46;78.23
65329;BME280;51941;52.210;5.158;2023-12-29T01:57:42;100513.06;;;9.42;78.00
65329;BME280;51941;52.210;5.158;2023-12-29T02:00:11;100515.03;;;9.45;77.99
65329;BME280;51941;52.210;5.158;2023-12-29T02:02:39;100525.03;;;9.48;77.98
65329;BME280;51941;52.210;5.158;2023-12-29T02:05:06;100514.28;;;9.48;77.85
65329;BME280;51941;52.210;5.158;2023-12-29T02:07:32;100517.72;;;9.45;78.01
65329;BME280;51941;52.210;5.158;2023-12-29T02:09:59;100536.03;;;9.32;78.04
65329;BME280;51941;52.210;5.158;2023-12-29T02:12:25;100511.34;;;9.26;78.62
65329;BME280;51941;52.210;5.158;2023-12-29T02:14:52;100524.59;;;9.39;78.15
65329;BME280;51941;52.210;5.158;2023-12-29T02:17:23;100519.22;;;9.39;78.07
65329;BME280;51941;52.210;5.158;2023-12-29T02:19:53;100521.50;;;9.40;78.19
65329;BME280;51941;52.210;5.158;2023-12-29T02:22:21;100523.75;;;9.35;78.64
65329;BME280;51941;52.210;5.158;2023-12-29T02:24:49;100518.75;;;9.33;78.71
65329;BME280;51941;52.210;5.158;2023-12-29T02:27:22;100531.72;;;9.27;79.14
65329;BME280;51941;52.210;5.158;2023-12-29T02:30:04;100523.75;;;9.31;79.04
65329;BME280;51941;52.210;5.158;2023-12-29T02:32:33;100539.47;;;9.33;79.06
65329;BME280;51941;52.210;5.158;2023-12-29T02:35:02;100529.38;;;9.22;79.42
65329;BME280;51941;52.210;5.158;2023-12-29T02:37:33;100526.84;;;9.37;79.23
65329;BME280;51941;52.210;5.158;2023-12-29T02:40:04;100528.38;;;9.34;79.28
65329;BME280;51941;52.210;5.158;2023-12-29T02:42:30;100527.63;;;9.37;78.96
65329;BME280;51941;52.210;5.158;2023-12-29T02:44:57;100533.78;;;9.38;78.92
65329;BME280;51941;52.210;5.158;2023-12-29T02:47:24;100519.16;;;9.35;78.77
65329;BME280;51941;52.210;5.158;2023-12-29T02:49:51;100518.78;;;9.37;78.63
65329;BME280;51941;52.210;5.158;2023-12-29T02:52:18;100516.84;;;9.34;78.51
65329;BME280;51941;52.210;5.158;2023-12-29T02:54:44;100519.00;;;9.24;78.93
65329;BME280;51941;52.210;5.158;2023-12-29T02:57:12;100533.53;;;9.16;78.84
65329;BME280;51941;52.210;5.158;2023-12-29T02:59:39;100536.28;;;9.23;78.83
65329;BME280;51941;52.210;5.158;2023-12-29T03:02:06;100520.13;;;9.20;78.83
65329;BME280;51941;52.210;5.158;2023-12-29T03:04:32;100515.94;;;9.22;79.09
65329;BME280;51941;52.210;5.158;2023-12-29T03:06:59;100524.69;;;9.16;79.17
65329;BME280;51941;52.210;5.158;2023-12-29T03:09:26;100526.63;;;9.19;79.25
65329;BME280;51941;52.210;5.158;2023-12-29T03:11:53;100522.41;;;9.18;79.13
65329;BME280;51941;52.210;5.158;2023-12-29T03:14:21;100525.75;;;9.07;79.34
65329;BME280;51941;52.210;5.158;2023-12-29T03:16:48;100531.66;;;9.20;79.35
65329;BME280;51941;52.210;5.158;2023-12-29T03:19:14;100538.56;;;9.21;79.18
65329;BME280;51941;52.210;5.158;2023-12-29T03:21:41;100530.50;;;9.21;78.82
65329;BME280;51941;52.210;5.158;2023-12-29T03:24:09;100536.91;;;9.09;78.72
65329;BME280;51941;52.210;5.158;2023-12-29T03:26:36;100529.31;;;9.19;78.80
65329;BME280;51941;52.210;5.158;2023-12-29T03:29:04;100520.81;;;9.13;78.77
65329;BME280;51941;52.210;5.158;2023-12-29T03:31:32;100526.97;;;9.14;78.62
65329;BME280;51941;52.210;5.158;2023-12-29T03:33:59;100534.91;;;9.03;78.68
65329;BME280;51941;52.210;5.158;2023-12-29T03:36:26;100541.47;;;9.05;78.42
65329;BME280;51941;52.210;5.158;2023-12-29T03:38:52;100538.69;;;8.98;78.38
65329;BME280;51941;52.210;5.158;2023-12-29T03:41:19;100540.63;;;9.01;78.57
65329;BME280;51941;52.210;5.158;2023-12-29T03:43:46;100520.19;;;8.93;78.08
65329;BME280;51941;52.210;5.158;2023-12-29T03:46:16;100516.06;;;8.99;78.64
65329;BME280;51941;52.210;5.158;2023-12-29T03:48:45;100506.09;;;9.00;78.73
65329;BME280;51941;52.210;5.158;2023-12-29T03:51:12;100516.88;;;9.03;78.58
65329;BME280;51941;52.210;5.158;2023-12-29T03:53:39;100519.97;;;9.05;78.35
65329;BME280;51941;52.210;5.158;2023-12-29T03:56:07;100508.00;;;8.99;78.49
65329;BME280;51941;52.210;5.158;2023-12-29T03:58:35;100506.09;;;9.00;78.89
65329;BME280;51941;52.210;5.158;2023-12-29T04:01:02;100491.47;;;8.97;78.72
65329;BME280;51941;52.210;5.158;2023-12-29T04:03:28;100488.91;;;9.08;78.72
65329;BME280;51941;52.210;5.158;2023-12-29T04:05:56;100494.69;;;9.10;78.75
65329;BME280;51941;52.210;5.158;2023-12-29T04:08:23;100512.03;;;9.16;78.83
65329;BME280;51941;52.210;5.158;2023-12-29T04:10:50;100513.59;;;9.17;78.75
65329;BME280;51941;52.210;5.158;2023-12-29T04:13:17;100502.44;;;9.15;79.00
65329;BME280;51941;52.210;5.158;2023-12-29T04:15:44;100513.59;;;9.17;79.35
65329;BME280;51941;52.210;5.158;2023-12-29T04:18:11;100515.47;;;9.17;79.62
65329;BME280;51941;52.210;5.158;2023-12-29T04:20:39;100516.91;;;9.07;79.93
65329;BME280;51941;52.210;5.158;2023-12-29T04:23:07;100507.59;;;8.97;80.94
65329;BME280;51941;52.210;5.158;2023-12-29T04:25:34;100498.75;;;8.97;80.54
65329;BME280;51941;52.210;5.158;2023-12-29T04:28:04;100509.50;;;8.97;80.47
65329;BME280;51941;52.210;5.158;2023-12-29T04:30:31;100506.88;;;9.00;80.72
65329;BME280;51941;52.210;5.158;2023-12-29T04:32:57;100499.94;;;8.99;80.60
65329;BME280;51941;52.210;5.158;2023-12-29T04:35:24;100500.78;;;9.03;80.62
65329;BME280;51941;52.210;5.158;2023-12-29T04:37:51;100516.50;;;9.05;80.45
65329;BME280;51941;52.210;5.158;2023-12-29T04:40:19;100513.81;;;9.05;80.54
65329;BME280;51941;52.210;5.158;2023-12-29T04:42:46;100505.72;;;9.01;80.97
65329;BME280;51941;52.210;5.158;2023-12-29T04:45:12;100494.13;;;8.94;80.57
65329;BME280;51941;52.210;5.158;2023-12-29T04:47:39;100487.53;;;8.87;81.11
65329;BME280;51941;52.210;5.158;2023-12-29T04:50:07;100500.94;;;8.87;81.00
65329;BME280;51941;52.210;5.158;2023-12-29T04:52:33;100486.50;;;8.99;80.80
65329;BME280;51941;52.210;5.158;2023-12-29T04:55:00;100483.00;;;8.91;80.19
65329;BME280;51941;52.210;5.158;2023-12-29T04:57:28;100488.34;;;8.91;80.31
65329;BME280;51941;52.210;5.158;2023-12-29T04:59:55;100477.63;;;8.95;80.33
65329;BME280;51941;52.210;5.158;2023-12-29T05:02:22;100491.16;;;9.02;80.02
65329;BME280;51941;52.210;5.158;2023-12-29T05:04:48;100484.66;;;9.03;79.68
65329;BME280;51941;52.210;5.158;2023-12-29T05:07:15;100480.41;;;9.02;79.50
65329;BME280;51941;52.210;5.158;2023-12-29T05:09:42;100471.63;;;9.09;79.42
65329;BME280;51941;52.210;5.158;2023-12-29T05:12:09;100474.31;;;9.09;78.98
65329;BME280;51941;52.210;5.158;2023-12-29T05:14:37;100480.94;;;9.19;79.11
65329;BME280;51941;52.210;5.158;2023-12-29T05:17:03;100485.56;;;9.18;78.93
65329;BME280;51941;52.210;5.158;2023-12-29T05:19:30;100490.94;;;9.18;78.67
65329;BME280;51941;52.210;5.158;2023-12-29T05:21:57;100484.75;;;9.14;77.68
65329;BME280;51941;52.210;5.158;2023-12-29T05:24:24;100476.34;;;9.16;78.32
65329;BME280;51941;52.210;5.158;2023-12-29T05:26:50;100480.22;;;9.22;78.22
65329;BME280;51941;52.210;5.158;2023-12-29T05:29:17;100483.72;;;9.26;77.85
65329;BME280;51941;52.210;5.158;2023-12-29T05:31:45;100473.34;;;9.24;77.64
65329;BME280;51941;52.210;5.158;2023-12-29T05:34:11;100479.06;;;9.23;76.97
65329;BME280;51941;52.210;5.158;2023-12-29T05:36:38;100475.97;;;9.21;77.10
65329;BME280;51941;52.210;5.158;2023-12-29T05:39:06;100481.34;;;9.21;77.24
65329;BME280;51941;52.210;5.158;2023-12-29T05:41:33;100482.78;;;9.11;77.04
65329;BME280;51941;52.210;5.158;2023-12-29T05:43:59;100481.00;;;9.22;77.42
65329;BME280;51941;52.210;5.158;2023-12-29T05:46:26;100482.47;;;9.16;77.02
65329;BME280;51941;52.210;5.158;2023-12-29T05:48:54;100487.47;;;9.18;77.42
65329;BME280;51941;52.210;5.158;2023-12-29T05:51:21;100472.16;;;9.22;77.24
65329;BME280;51941;52.210;5.158;2023-12-29T05:53:48;100483.31;;;9.24;77.60
65329;BME280;51941;52.210;5.158;2023-12-29T05:56:15;100480.66;;;9.27;77.41
65329;BME280;51941;52.210;5.158;2023-12-29T05:58:42;100469.91;;;9.27;77.45
65329;BME280;51941;52.210;5.158;2023-12-29T06:01:10;100475.97;;;9.21;77.49
65329;BME280;51941;52.210;5.158;2023-12-29T06:03:37;100473.69;;;9.23;77.49
65329;BME280;51941;52.210;5.158;2023-12-29T06:06:05;100469.88;;;9.24;77.42
65329;BME280;51941;52.210;5.158;2023-12-29T06:08:33;100485.16;;;9.16;77.76
65329;BME280;51941;52.210;5.158;2023-12-29T06:11:01;100478.25;;;9.19;77.82
65329;BME280;51941;52.210;5.158;2023-12-29T06:13:28;100484.03;;;9.21;77.86
65329;BME280;51941;52.210;5.158;2023-12-29T06:15:55;100499.00;;;9.18;77.88
65329;BME280;51941;52.210;5.158;2023-12-29T06:18:22;100494.03;;;9.20;78.06
65329;BME280;51941;52.210;5.158;2023-12-29T06:20:49;100489.41;;;9.21;78.16
65329;BME280;51941;52.210;5.158;2023-12-29T06:23:17;100482.88;;;9.18;78.03
65329;BME280;51941;52.210;5.158;2023-12-29T06:25:45;100485.00;;;9.02;78.49
65329;BME280;51941;52.210;5.158;2023-12-29T06:28:12;100479.00;;;9.16;78.37
65329;BME280;51941;52.210;5.158;2023-12-29T06:30:39;100483.63;;;9.19;78.32
65329;BME280;51941;52.210;5.158;2023-12-29T06:33:06;100480.63;;;9.24;78.23
65329;BME280;51941;52.210;5.158;2023-12-29T06:35:33;100477.94;;;9.24;78.12
65329;BME280;51941;52.210;5.158;2023-12-29T06:38:00;100479.88;;;9.23;78.19
65329;BME280;51941;52.210;5.158;2023-12-29T06:40:28;100464.16;;;9.25;77.99
65329;BME280;51941;52.210;5.158;2023-12-29T06:42:55;100471.41;;;9.21;77.91
65329;BME280;51941;52.210;5.158;2023-12-29T06:45:22;100477.13;;;9.20;77.59
65329;BME280;51941;52.210;5.158;2023-12-29T06:47:49;100478.75;;;9.28;77.68
65329;BME280;51941;52.210;5.158;2023-12-29T06:50:16;100482.16;;;9.21;78.02
65329;BME280;51941;52.210;5.158;2023-12-29T06:52:42;100475.97;;;9.17;77.92
65329;BME280;51941;52.210;5.158;2023-12-29T06:55:09;100467.91;;;9.17;78.34
65329;BME280;51941;52.210;5.158;2023-12-29T06:57:38;100477.19;;;9.23;78.24
65329;BME280;51941;52.210;5.158;2023-12-29T07:00:06;100483.63;;;9.15;78.46
65329;BME280;51941;52.210;5.158;2023-12-29T07:02:33;100480.19;;;9.18;78.14
65329;BME280;51941;52.210;5.158;2023-12-29T07:05:00;100484.84;;;9.25;78.29
65329;BME280;51941;52.210;5.158;2023-12-29T07:07:27;100484.84;;;9.25;78.09
65329;BME280;51941;52.210;5.158;2023-12-29T07:09:54;100487.53;;;9.21;77.96
65329;BME280;51941;52.210;5.158;2023-12-29T07:12:21;100490.97;;;9.22;78.05
65329;BME280;51941;52.210;5.158;2023-12-29T07:14:49;100482.50;;;9.20;78.34
65329;BME280;51941;52.210;5.158;2023-12-29T07:17:16;100475.63;;;9.22;78.49
65329;BME280;51941;52.210;5.158;2023-12-29T07:19:43;100475.56;;;9.19;78.38
65329;BME280;51941;52.210;5.158;2023-12-29T07:22:09;100475.56;;;9.19;78.51
65329;BME280;51941;52.210;5.158;2023-12-29T07:24:36;100477.13;;;9.20;78.52
65329;BME280;51941;52.210;5.158;2023-12-29T07:27:04;100487.47;;;9.18;78.28
65329;BME280;51941;52.210;5.158;2023-12-29T07:29:31;100488.91;;;9.08;78.58
65329;BME280;51941;52.210;5.158;2023-12-29T07:31:59;100485.06;;;9.09;78.99
65329;BME280;51941;52.210;5.158;2023-12-29T07:34:26;100497.47;;;9.17;78.65
65329;BME280;51941;52.210;5.158;2023-12-29T07:36:53;100485.97;;;9.20;78.85
65329;BME280;51941;52.210;5.158;2023-12-29T07:39:20;100500.91;;;9.18;78.95
65329;BME280;51941;52.210;5.158;2023-12-29T07:41:47;100497.88;;;9.23;78.91
65329;BME280;51941;52.210;5.158;2023-12-29T07:44:16;100492.13;;;9.24;78.87
65329;BME280;51941;52.210;5.158;2023-12-29T07:46:43;100482.94;;;9.25;78.90
65329;BME280;51941;52.210;5.158;2023-12-29T07:49:12;100497.56;;;9.28;78.60
65329;BME280;51941;52.210;5.158;2023-12-29T07:51:39;100503.38;;;9.30;79.00
65329;BME280;51941;52.210;5.158;2023-12-29T07:54:07;100498.00;;;9.30;78.81
65329;BME280;51941;52.210;5.158;2023-12-29T07:56:34;100498.75;;;9.30;78.98
65329;BME280;51941;52.210;5.158;2023-12-29T07:59:02;100492.94;;;9.28;78.74
65329;BME280;51941;52.210;5.158;2023-12-29T08:01:29;100490.66;;;9.27;78.98
65329;BME280;51941;52.210;5.158;2023-12-29T08:03:55;100491.38;;;9.24;79.45
65329;BME280;51941;52.210;5.158;2023-12-29T08:06:24;100491.00;;;9.25;79.19
65329;BME280;51941;52.210;5.158;2023-12-29T08:08:51;100497.56;;;9.28;79.20
65329;BME280;51941;52.210;5.158;2023-12-29T08:11:17;100490.31;;;9.32;79.10
65329;BME280;51941;52.210;5.158;2023-12-29T08:13:47;100506.44;;;9.32;79.12
65329;BME280;51941;52.210;5.158;2023-12-29T08:16:14;100507.22;;;9.33;79.30
65329;BME280;51941;52.210;5.158;2023-12-29T08:18:42;100511.06;;;9.32;79.53
65329;BME280;51941;52.210;5.158;2023-12-29T08:21:16;100509.53;;;9.34;78.98
65329;BME280;51941;52.210;5.158;2023-12-29T08:23:45;100510.41;;;9.42;79.08
65329;BME280;51941;52.210;5.158;2023-12-29T08:26:11;100504.25;;;9.41;79.23
65329;BME280;51941;52.210;5.158;2023-12-29T08:28:38;100493.84;;;9.40;78.98
65329;BME280;51941;52.210;5.158;2023-12-29T08:31:06;100495.03;;;9.42;79.12
65329;BME280;51941;52.210;5.158;2023-12-29T08:33:33;100483.16;;;9.43;79.22
65329;BME280;51941;52.210;5.158;2023-12-29T08:36:01;100498.50;;;9.43;79.17
65329;BME280;51941;52.210;5.158;2023-12-29T08:38:29;100491.13;;;9.36;79.48
65329;BME280;51941;52.210;5.158;2023-12-29T08:40:57;100490.81;;;9.41;79.28
65329;BME280;51941;52.210;5.158;2023-12-29T08:43:24;100503.50;;;9.44;79.14
65329;BME280;51941;52.210;5.158;2023-12-29T08:45:51;100506.59;;;9.46;78.96
65329;BME280;51941;52.210;5.158;2023-12-29T08:48:18;100518.41;;;9.38;79.09
65329;BME280;51941;52.210;5.158;2023-12-29T08:50:45;100505.78;;;9.39;79.11
65329;BME280;51941;52.210;5.158;2023-12-29T08:53:12;100508.91;;;9.48;79.04
65329;BME280;51941;52.210;5.158;2023-12-29T08:55:38;100512.75;;;9.47;78.81
65329;BME280;51941;52.210;5.158;2023-12-29T08:58:07;100507.44;;;9.54;78.87
65329;BME280;51941;52.210;5.158;2023-12-29T09:00:33;100509.34;;;9.54;79.13
65329;BME280;51941;52.210;5.158;2023-12-29T09:03:00;100506.28;;;9.55;78.92
65329;BME280;51941;52.210;5.158;2023-12-29T09:05:27;100504.72;;;9.50;78.65
65329;BME280;51941;52.210;5.158;2023-12-29T09:07:54;100524.38;;;9.58;78.84
65329;BME280;51941;52.210;5.158;2023-12-29T09:10:20;100517.50;;;9.61;78.70
65329;BME280;51941;52.210;5.158;2023-12-29T09:12:48;100530.47;;;9.52;78.86
65329;BME280;51941;52.210;5.158;2023-12-29T09:15:16;100522.03;;;9.53;79.07
65329;BME280;51941;52.210;5.158;2023-12-29T09:17:42;100521.59;;;9.47;78.75
65329;BME280;51941;52.210;5.158;2023-12-29T09:20:10;100530.53;;;9.59;79.28
65329;BME280;51941;52.210;5.158;2023-12-29T09:22:37;100529.81;;;9.65;79.08
65329;BME280;51941;52.210;5.158;2023-12-29T09:25:04;100522.16;;;9.67;78.76
65329;BME280;51941;52.210;5.158;2023-12-29T09:27:31;100522.53;;;9.69;78.74
65329;BME280;51941;52.210;5.158;2023-12-29T09:29:57;100530.69;;;9.77;78.72
65329;BME280;51941;52.210;5.158;2023-12-29T09:32:27;100531.06;;;9.75;78.42
65329;BME280;51941;52.210;5.158;2023-12-29T09:34:53;100523.72;;;9.72;78.54
65329;BME280;51941;52.210;5.158;2023-12-29T09:37:22;100531.09;;;9.79;78.42
65329;BME280;51941;52.210;5.158;2023-12-29T09:39:48;100527.25;;;9.80;78.37
65329;BME280;51941;52.210;5.158;2023-12-29T09:42:20;100521.50;;;9.81;78.40
65329;BME280;51941;52.210;5.158;2023-12-29T09:44:49;100520.38;;;9.82;78.51
65329;BME280;51941;52.210;5.158;2023-12-29T09:47:20;100531.97;;;9.90;78.36
65329;BME280;51941;52.210;5.158;2023-12-29T09:49:49;100517.63;;;9.79;78.29
65329;BME280;51941;52.210;5.158;2023-12-29T09:52:16;100526.19;;;9.92;78.29
65329;BME280;51941;52.210;5.158;2023-12-29T09:54:45;100528.50;;;9.93;78.14
65329;BME280;51941;52.210;5.158;2023-12-29T09:57:13;100526.22;;;9.95;78.02
65329;BME280;51941;52.210;5.158;2023-12-29T09:59:40;100533.16;;;9.96;78.14
65329;BME280;51941;52.210;5.158;2023-12-29T10:02:14;100542.31;;;9.88;78.17
65329;BME280;51941;52.210;5.158;2023-12-29T10:04:41;100540.38;;;9.88;77.48
65329;BME280;51941;52.210;5.158;2023-12-29T10:07:13;100548.50;;;9.92;77.99
65329;BME280;51941;52.210;5.158;2023-12-29T10:09:43;100548.16;;;10.01;77.98
65329;BME280;51941;52.210;5.158;2023-12-29T10:12:12;100564.69;;;9.99;78.35
65329;BME280;51941;52.210;5.158;2023-12-29T10:14:46;100556.97;;;9.98;78.42
65329;BME280;51941;52.210;5.158;2023-12-29T10:17:26;100565.13;;;10.05;78.39
65329;BME280;51941;52.210;5.158;2023-12-29T10:20:00;100566.59;;;9.99;78.63
65329;BME280;51941;52.210;5.158;2023-12-29T10:22:41;100555.84;;;9.99;78.87
65329;BME280;51941;52.210;5.158;2023-12-29T10:25:12;100554.69;;;9.96;78.86
65329;BME280;51941;52.210;5.158;2023-12-29T10:27:39;100556.97;;;9.94;79.03
65329;BME280;51941;52.210;5.158;2023-12-29T10:30:10;100545.78;;;9.88;78.68
65329;BME280;51941;52.210;5.158;2023-12-29T10:32:37;100543.16;;;9.99;78.92
65329;BME280;51941;52.210;5.158;2023-12-29T10:35:08;100545.50;;;10.04;78.80
65329;BME280;51941;52.210;5.158;2023-12-29T10:37:37;100541.00;;;10.16;78.39
65329;BME280;51941;52.210;5.158;2023-12-29T10:40:05;100544.44;;;10.16;78.25
65329;BME280;51941;52.210;5.158;2023-12-29T10:42:32;100546.44;;;10.26;78.09
65329;BME280;51941;52.210;5.158;2023-12-29T10:45:06;100560.72;;;10.34;77.51
65329;BME280;51941;52.210;5.158;2023-12-29T10:47:33;100575.69;;;10.32;77.06
65329;BME280;51941;52.210;5.158;2023-12-29T10:50:01;100573.31;;;10.23;77.65
65329;BME280;51941;52.210;5.158;2023-12-29T10:52:29;100576.84;;;10.30;77.52
65329;BME280;51941;52.210;5.158;2023-12-29T10:55:06;100579.09;;;10.25;77.74
65329;BME280;51941;52.210;5.158;2023-12-29T10:57:33;100580.59;;;10.19;77.70
65329;BME280;51941;52.210;5.158;2023-12-29T11:00:00;100593.91;;;10.01;77.98
65329;BME280;51941;52.210;5.158;2023-12-29T11:02:27;100588.38;;;9.83;78.88
65329;BME280;51941;52.210;5.158;2023-12-29T11:05:02;100592.22;;;9.85;79.10
65329;BME280;51941;52.210;5.158;2023-12-29T11:07:34;100596.03;;;9.81;79.59
65329;BME280;51941;52.210;5.158;2023-12-29T11:10:02;100594.56;;;9.87;79.53
65329;BME280;51941;52.210;5.158;2023-12-29T11:12:32;100597.63;;;9.85;80.13
65329;BME280;51941;52.210;5.158;2023-12-29T11:15:01;100605.31;;;9.87;79.61
65329;BME280;51941;52.210;5.158;2023-12-29T11:17:29;100600.25;;;9.82;80.09
65329;BME280;51941;52.210;5.158;2023-12-29T11:19:58;100601.50;;;9.92;79.37
65329;BME280;51941;52.210;5.158;2023-12-29T11:22:27;100593.38;;;9.84;78.79
65329;BME280;51941;52.210;5.158;2023-12-29T11:24:54;100598.44;;;9.93;79.05
65329;BME280;51941;52.210;5.158;2023-12-29T11:27:21;100600.06;;;10.01;78.59
65329;BME280;51941;52.210;5.158;2023-12-29T11:29:50;100595.47;;;10.02;79.10
65329;BME280;51941;52.210;5.158;2023-12-29T11:32:22;100593.19;;;10.04;78.61
65329;BME280;51941;52.210;5.158;2023-12-29T11:34:54;100605.19;;;10.17;78.68
65329;BME280;51941;52.210;5.158;2023-12-29T11:37:41;100600.63;;;10.25;78.26
65329;BME280;51941;52.210;5.158;2023-12-29T11:40:18;100607.97;;;10.28;78.23
65329;BME280;51941;52.210;5.158;2023-12-29T11:42:49;100604.53;;;10.31;77.90
65329;BME280;51941;52.210;5.158;2023-12-29T11:45:29;100606.47;;;10.34;76.53
65329;BME280;51941;52.210;5.158;2023-12-29T11:47:57;100601.50;;;10.36;76.66
65329;BME280;51941;52.210;5.158;2023-12-29T11:50:29;100604.56;;;10.35;77.07
65329;BME280;51941;52.210;5.158;2023-12-29T11:52:56;100605.00;;;10.44;76.73
65329;BME280;51941;52.210;5.158;2023-12-29T11:55:28;100612.69;;;10.42;76.18
65329;BME280;51941;52.210;5.158;2023-12-29T11:57:55;100600.75;;;10.43;76.62
65329;BME280;51941;52.210;5.158;2023-12-29T12:00:41;100608.38;;;10.30;76.48
65329;BME280;51941;52.210;5.158;2023-12-29T12:03:16;100608.41;;;10.34;75.61
65329;BME280;51941;52.210;5.158;2023-12-29T12:05:47;100599.59;;;10.40;75.49
65329;BME280;51941;52.210;5.158;2023-12-29T12:08:27;100594.25;;;10.44;74.55
65329;BME280;51941;52.210;5.158;2023-12-29T12:10:55;100601.59;;;10.50;74.36
65329;BME280;51941;52.210;5.158;2023-12-29T12:13:43;100598.50;;;10.48;74.02
65329;BME280;51941;52.210;5.158;2023-12-29T12:16:47;100601.94;;;10.45;73.62
65329;BME280;51941;52.210;5.158;2023-12-29T12:19:14;100594.28;;;10.47;73.94
65329;BME280;51941;52.210;5.158;2023-12-29T12:21:45;100591.25;;;10.56;73.89
65329;BME280;51941;52.210;5.158;2023-12-29T12:24:12;100593.19;;;10.59;73.86
65329;BME280;51941;52.210;5.158;2023-12-29T12:26:40;100581.66;;;10.62;73.87
65329;BME280;51941;52.210;5.158;2023-12-29T12:29:07;100587.84;;;10.63;73.45
65329;BME280;51941;52.210;5.158;2023-12-29T12:31:35;100587.44;;;10.61;72.17
65329;BME280;51941;52.210;5.158;2023-12-29T12:34:02;100583.94;;;10.60;72.37
65329;BME280;51941;52.210;5.158;2023-12-29T12:36:30;100582.06;;;10.61;73.12
65329;BME280;51941;52.210;5.158;2023-12-29T12:38:57;100591.59;;;10.47;72.38
65329;BME280;51941;52.210;5.158;2023-12-29T12:41:26;100582.38;;;10.56;72.94
65329;BME280;51941;52.210;5.158;2023-12-29T12:44:10;100572.00;;;10.54;72.95
65329;BME280;51941;52.210;5.158;2023-12-29T12:46:44;100582.38;;;10.52;73.15
65329;BME280;51941;52.210;5.158;2023-12-29T12:49:15;100572.38;;;10.49;73.36
65329;BME280;51941;52.210;5.158;2023-12-29T12:51:43;100568.84;;;10.45;73.45
65329;BME280;51941;52.210;5.158;2023-12-29T12:54:10;100574.22;;;10.41;73.61
65329;BME280;51941;52.210;5.158;2023-12-29T12:56:37;100567.25;;;10.37;73.45
65329;BME280;51941;52.210;5.158;2023-12-29T12:59:04;100575.31;;;10.29;73.54
65329;BME280;51941;52.210;5.158;2023-12-29T13:01:34;100565.72;;;10.36;73.35
65329;BME280;51941;52.210;5.158;2023-12-29T13:04:03;100566.50;;;10.36;73.11